sensor_id;sensor_type;location;lat;lon;timestamp;P1;durP1;ratioP1;P2;durP2;ratioP2
5965;SDS011;3009;43.224;27.976;2023-07-24T00:00:48;10.10;;;9.20;;
5965;SDS011;3009;43.224;27.976;2023-07-24T00:03:16;10.10;;;9.20;;
5965;SDS011;3009;43.224;27.976;2023-07-24T00:05:45;8.60;;;7.93;;
5965;SDS011;3009;43.224;27.976;2023-07-24T00:08:13;9.10;;;8.40;;
5965;SDS011;3009;43.224;27.976;2023-07-24T00:10:43;7.70;;;6.90;;
5965;SDS011;3009;43.224;27.976;2023-07-24T00:13:11;9.20;;;8.40;;
5965;SDS011;3009;43.224;27.976;2023-07-24T00:15:40;10.43;;;8.33;;
5965;SDS011;3009;43.224;27.976;2023-07-24T00:18:08;8.83;;;7.97;;
5965;SDS011;3009;43.224;27.976;2023-07-24T00:20:37;8.70;;;7.90;;
5965;SDS011;3009;43.224;27.976;2023-07-24T00:23:05;17.13;;;8.33;;
5965;SDS011;3009;43.224;27.976;2023-07-24T00:25:34;8.20;;;7.57;;
5965;SDS011;3009;43.224;27.976;2023-07-24T00:28:05;8.60;;;7.90;;
5965;SDS011;3009;43.224;27.976;2023-07-24T00:30:33;8.77;;;7.93;;
5965;SDS011;3009;43.224;27.976;2023-07-24T00:33:01;10.00;;;9.10;;
5965;SDS011;3009;43.224;27.976;2023-07-24T00:35:30;10.77;;;8.43;;
5965;SDS011;3009;43.224;27.976;2023-07-24T00:37:58;7.97;;;7.17;;
5965;SDS011;3009;43.224;27.976;2023-07-24T00:40:27;9.03;;;8.30;;
5965;SDS011;3009;43.224;27.976;2023-07-24T00:42:55;8.60;;;7.80;;
5965;SDS011;3009;43.224;27.976;2023-07-24T00:45:25;9.73;;;8.77;;
5965;SDS011;3009;43.224;27.976;2023-07-24T00:47:53;11.10;;;9.10;;
5965;SDS011;3009;43.224;27.976;2023-07-24T00:50:22;9.00;;;8.10;;
5965;SDS011;3009;43.224;27.976;2023-07-24T00:52:51;11.57;;;8.37;;
5965;SDS011;3009;43.224;27.976;2023-07-24T00:55:19;9.10;;;8.20;;
5965;SDS011;3009;43.224;27.976;2023-07-24T00:57:48;12.30;;;8.17;;
5965;SDS011;3009;43.224;27.976;2023-07-24T01:00:17;9.63;;;8.50;;
5965;SDS011;3009;43.224;27.976;2023-07-24T01:02:47;9.40;;;8.30;;
5965;SDS011;3009;43.224;27.976;2023-07-24T01:05:16;12.73;;;9.33;;
5965;SDS011;3009;43.224;27.976;2023-07-24T01:07:45;13.63;;;8.27;;
5965;SDS011;3009;43.224;27.976;2023-07-24T01:10:13;9.17;;;8.47;;
5965;SDS011;3009;43.224;27.976;2023-07-24T01:12:43;9.17;;;8.23;;
5965;SDS011;3009;43.224;27.976;2023-07-24T01:15:19;9.83;;;9.00;;
5965;SDS011;3009;43.224;27.976;2023-07-24T01:17:56;8.30;;;7.70;;
5965;SDS011;3009;43.224;27.976;2023-07-24T01:20:28;8.93;;;8.10;;
5965;SDS011;3009;43.224;27.976;2023-07-24T01:23:03;9.60;;;8.50;;
5965;SDS011;3009;43.224;27.976;2023-07-24T01:28:37;9.33;;;8.33;;
5965;SDS011;3009;43.224;27.976;2023-07-24T01:31:06;9.70;;;8.80;;
5965;SDS011;3009;43.224;27.976;2023-07-24T01:33:34;8.60;;;7.80;;
5965;SDS011;3009;43.224;27.976;2023-07-24T01:36:03;9.17;;;8.03;;
5965;SDS011;3009;43.224;27.976;2023-07-24T01:38:34;10.13;;;8.77;;
5965;SDS011;3009;43.224;27.976;2023-07-24T01:41:04;10.90;;;8.20;;
5965;SDS011;3009;43.224;27.976;2023-07-24T01:43:33;9.23;;;8.43;;
5965;SDS011;3009;43.224;27.976;2023-07-24T01:46:03;9.87;;;8.93;;
5965;SDS011;3009;43.224;27.976;2023-07-24T01:48:32;11.03;;;8.73;;
5965;SDS011;3009;43.224;27.976;2023-07-24T01:51:00;11.77;;;9.00;;
5965;SDS011;3009;43.224;27.976;2023-07-24T01:53:28;9.60;;;8.60;;
5965;SDS011;3009;43.224;27.976;2023-07-24T01:55:58;11.40;;;8.47;;
5965;SDS011;3009;43.224;27.976;2023-07-24T01:58:26;9.07;;;8.33;;
5965;SDS011;3009;43.224;27.976;2023-07-24T02:00:55;11.23;;;8.60;;
5965;SDS011;3009;43.224;27.976;2023-07-24T02:03:25;11.37;;;8.50;;
5965;SDS011;3009;43.224;27.976;2023-07-24T02:05:53;9.67;;;8.77;;
5965;SDS011;3009;43.224;27.976;2023-07-24T02:08:22;9.70;;;8.90;;
5965;SDS011;3009;43.224;27.976;2023-07-24T02:10:51;9.90;;;9.10;;
5965;SDS011;3009;43.224;27.976;2023-07-24T02:13:19;10.30;;;9.20;;
5965;SDS011;3009;43.224;27.976;2023-07-24T02:15:48;9.43;;;8.50;;
5965;SDS011;3009;43.224;27.976;2023-07-24T02:18:16;10.23;;;9.33;;
5965;SDS011;3009;43.224;27.976;2023-07-24T02:20:49;11.33;;;8.77;;
5965;SDS011;3009;43.224;27.976;2023-07-24T02:23:19;11.87;;;9.50;;
5965;SDS011;3009;43.224;27.976;2023-07-24T02:25:50;9.33;;;8.50;;
5965;SDS011;3009;43.224;27.976;2023-07-24T02:28:19;14.07;;;9.00;;
5965;SDS011;3009;43.224;27.976;2023-07-24T02:30:48;9.73;;;8.87;;
5965;SDS011;3009;43.224;27.976;2023-07-24T02:33:17;9.40;;;8.60;;
5965;SDS011;3009;43.224;27.976;2023-07-24T02:35:46;13.77;;;9.00;;
5965;SDS011;3009;43.224;27.976;2023-07-24T02:38:16;9.73;;;8.80;;
5965;SDS011;3009;43.224;27.976;2023-07-24T02:40:44;9.93;;;8.20;;
5965;SDS011;3009;43.224;27.976;2023-07-24T02:43:13;18.73;;;9.63;;
5965;SDS011;3009;43.224;27.976;2023-07-24T02:45:41;9.60;;;8.70;;
5965;SDS011;3009;43.224;27.976;2023-07-24T02:48:10;9.57;;;8.67;;
5965;SDS011;3009;43.224;27.976;2023-07-24T02:50:38;9.93;;;9.03;;
5965;SDS011;3009;43.224;27.976;2023-07-24T02:53:07;9.27;;;8.53;;
5965;SDS011;3009;43.224;27.976;2023-07-24T02:55:37;11.50;;;9.90;;
5965;SDS011;3009;43.224;27.976;2023-07-24T02:58:10;9.40;;;8.60;;
5965;SDS011;3009;43.224;27.976;2023-07-24T03:00:39;11.27;;;8.80;;
5965;SDS011;3009;43.224;27.976;2023-07-24T03:03:09;10.27;;;9.37;;
5965;SDS011;3009;43.224;27.976;2023-07-24T03:05:37;9.10;;;8.40;;
5965;SDS011;3009;43.224;27.976;2023-07-24T03:08:06;9.03;;;8.43;;
5965;SDS011;3009;43.224;27.976;2023-07-24T03:10:34;10.07;;;8.67;;
5965;SDS011;3009;43.224;27.976;2023-07-24T03:13:04;9.33;;;8.43;;
5965;SDS011;3009;43.224;27.976;2023-07-24T03:15:32;8.77;;;8.07;;
5965;SDS011;3009;43.224;27.976;2023-07-24T03:18:01;8.93;;;8.13;;
5965;SDS011;3009;43.224;27.976;2023-07-24T03:20:29;8.77;;;7.93;;
5965;SDS011;3009;43.224;27.976;2023-07-24T03:22:57;8.10;;;7.40;;
5965;SDS011;3009;43.224;27.976;2023-07-24T03:25:26;7.33;;;6.83;;
5965;SDS011;3009;43.224;27.976;2023-07-24T03:27:54;7.03;;;6.43;;
5965;SDS011;3009;43.224;27.976;2023-07-24T03:30:24;7.13;;;6.53;;
5965;SDS011;3009;43.224;27.976;2023-07-24T03:32:52;7.83;;;7.13;;
5965;SDS011;3009;43.224;27.976;2023-07-24T03:35:21;7.33;;;6.73;;
5965;SDS011;3009;43.224;27.976;2023-07-24T03:37:49;8.80;;;7.17;;
5965;SDS011;3009;43.224;27.976;2023-07-24T03:40:18;7.43;;;6.60;;
5965;SDS011;3009;43.224;27.976;2023-07-24T03:42:47;6.93;;;6.23;;
5965;SDS011;3009;43.224;27.976;2023-07-24T03:45:16;6.50;;;6.00;;
5965;SDS011;3009;43.224;27.976;2023-07-24T03:47:45;6.43;;;5.93;;
5965;SDS011;3009;43.224;27.976;2023-07-24T03:50:14;8.10;;;5.77;;
5965;SDS011;3009;43.224;27.976;2023-07-24T03:52:42;6.20;;;5.70;;
5965;SDS011;3009;43.224;27.976;2023-07-24T03:55:11;6.23;;;5.73;;
5965;SDS011;3009;43.224;27.976;2023-07-24T03:57:39;6.67;;;6.07;;
5965;SDS011;3009;43.224;27.976;2023-07-24T04:00:08;7.07;;;5.83;;
5965;SDS011;3009;43.224;27.976;2023-07-24T04:02:38;7.63;;;6.00;;
5965;SDS011;3009;43.224;27.976;2023-07-24T04:05:09;6.50;;;6.00;;
5965;SDS011;3009;43.224;27.976;2023-07-24T04:07:37;5.73;;;5.23;;
5965;SDS011;3009;43.224;27.976;2023-07-24T04:10:06;5.93;;;5.50;;
5965;SDS011;3009;43.224;27.976;2023-07-24T04:12:35;6.23;;;5.47;;
5965;SDS011;3009;43.224;27.976;2023-07-24T04:15:04;5.97;;;5.47;;
5965;SDS011;3009;43.224;27.976;2023-07-24T04:17:34;6.90;;;5.40;;
5965;SDS011;3009;43.224;27.976;2023-07-24T04:20:02;5.83;;;5.30;;
5965;SDS011;3009;43.224;27.976;2023-07-24T04:22:33;5.23;;;4.93;;
5965;SDS011;3009;43.224;27.976;2023-07-24T04:25:02;5.73;;;5.23;;
5965;SDS011;3009;43.224;27.976;2023-07-24T04:27:30;5.83;;;5.30;;
5965;SDS011;3009;43.224;27.976;2023-07-24T04:29:59;6.40;;;5.80;;
5965;SDS011;3009;43.224;27.976;2023-07-24T04:32:28;6.10;;;5.60;;
5965;SDS011;3009;43.224;27.976;2023-07-24T04:34:57;9.93;;;5.80;;
5965;SDS011;3009;43.224;27.976;2023-07-24T04:37:25;6.73;;;6.00;;
5965;SDS011;3009;43.224;27.976;2023-07-24T04:39:55;5.90;;;5.40;;
5965;SDS011;3009;43.224;27.976;2023-07-24T04:42:24;5.90;;;5.50;;
5965;SDS011;3009;43.224;27.976;2023-07-24T04:44:52;5.73;;;5.43;;
5965;SDS011;3009;43.224;27.976;2023-07-24T04:47:21;5.80;;;5.40;;
5965;SDS011;3009;43.224;27.976;2023-07-24T04:49:50;5.57;;;5.10;;
5965;SDS011;3009;43.224;27.976;2023-07-24T04:52:18;5.20;;;4.90;;
5965;SDS011;3009;43.224;27.976;2023-07-24T04:54:47;5.80;;;5.20;;
5965;SDS011;3009;43.224;27.976;2023-07-24T04:57:16;5.97;;;5.57;;
5965;SDS011;3009;43.224;27.976;2023-07-24T04:59:45;5.32;;;4.97;;
5965;SDS011;3009;43.224;27.976;2023-07-24T05:02:14;4.97;;;4.55;;
5965;SDS011;3009;43.224;27.976;2023-07-24T05:04:42;4.95;;;4.65;;
5965;SDS011;3009;43.224;27.976;2023-07-24T05:07:11;4.70;;;4.50;;
5965;SDS011;3009;43.224;27.976;2023-07-24T05:09:39;6.60;;;4.72;;
5965;SDS011;3009;43.224;27.976;2023-07-24T05:12:08;7.35;;;4.85;;
5965;SDS011;3009;43.224;27.976;2023-07-24T05:14:38;5.10;;;4.80;;
5965;SDS011;3009;43.224;27.976;2023-07-24T05:17:08;4.55;;;4.25;;
5965;SDS011;3009;43.224;27.976;2023-07-24T05:19:36;4.90;;;4.70;;
5965;SDS011;3009;43.224;27.976;2023-07-24T05:22:05;5.80;;;5.35;;
5965;SDS011;3009;43.224;27.976;2023-07-24T05:24:34;5.82;;;5.47;;
5965;SDS011;3009;43.224;27.976;2023-07-24T05:27:03;6.05;;;5.03;;
5965;SDS011;3009;43.224;27.976;2023-07-24T05:29:32;7.38;;;6.05;;
5965;SDS011;3009;43.224;27.976;2023-07-24T05:32:02;7.22;;;4.65;;
5965;SDS011;3009;43.224;27.976;2023-07-24T05:34:31;8.07;;;5.68;;
5965;SDS011;3009;43.224;27.976;2023-07-24T05:36:59;5.68;;;4.53;;
5965;SDS011;3009;43.224;27.976;2023-07-24T05:39:29;7.82;;;5.32;;
5965;SDS011;3009;43.224;27.976;2023-07-24T05:41:57;6.00;;;5.50;;
5965;SDS011;3009;43.224;27.976;2023-07-24T05:44:26;6.70;;;4.90;;
5965;SDS011;3009;43.224;27.976;2023-07-24T05:46:55;5.47;;;4.97;;
5965;SDS011;3009;43.224;27.976;2023-07-24T05:49:25;5.80;;;5.20;;
5965;SDS011;3009;43.224;27.976;2023-07-24T05:51:53;6.53;;;5.72;;
5965;SDS011;3009;43.224;27.976;2023-07-24T05:54:23;6.57;;;5.53;;
5965;SDS011;3009;43.224;27.976;2023-07-24T05:56:52;6.78;;;6.15;;
5965;SDS011;3009;43.224;27.976;2023-07-24T05:59:20;6.30;;;5.80;;
5965;SDS011;3009;43.224;27.976;2023-07-24T06:01:49;15.60;;;6.18;;
5965;SDS011;3009;43.224;27.976;2023-07-24T06:04:17;8.23;;;5.65;;
5965;SDS011;3009;43.224;27.976;2023-07-24T06:06:47;7.95;;;4.85;;
5965;SDS011;3009;43.224;27.976;2023-07-24T06:09:16;6.78;;;5.15;;
5965;SDS011;3009;43.224;27.976;2023-07-24T06:11:47;6.03;;;5.25;;
5965;SDS011;3009;43.224;27.976;2023-07-24T06:14:16;5.10;;;4.80;;
5965;SDS011;3009;43.224;27.976;2023-07-24T06:16:44;5.93;;;4.70;;
5965;SDS011;3009;43.224;27.976;2023-07-24T06:19:13;6.43;;;5.80;;
5965;SDS011;3009;43.224;27.976;2023-07-24T06:21:41;7.00;;;4.93;;
5965;SDS011;3009;43.224;27.976;2023-07-24T06:24:11;7.05;;;5.15;;
5965;SDS011;3009;43.224;27.976;2023-07-24T06:26:40;5.68;;;5.30;;
5965;SDS011;3009;43.224;27.976;2023-07-24T06:29:10;5.45;;;4.93;;
5965;SDS011;3009;43.224;27.976;2023-07-24T06:31:38;5.25;;;4.75;;
5965;SDS011;3009;43.224;27.976;2023-07-24T06:34:07;5.85;;;4.28;;
5965;SDS011;3009;43.224;27.976;2023-07-24T06:36:38;5.10;;;4.72;;
5965;SDS011;3009;43.224;27.976;2023-07-24T06:39:06;5.40;;;4.97;;
5965;SDS011;3009;43.224;27.976;2023-07-24T06:41:36;5.53;;;4.72;;
5965;SDS011;3009;43.224;27.976;2023-07-24T06:44:05;7.32;;;5.07;;
5965;SDS011;3009;43.224;27.976;2023-07-24T06:46:33;5.05;;;4.38;;
5965;SDS011;3009;43.224;27.976;2023-07-24T06:49:02;9.25;;;5.35;;
5965;SDS011;3009;43.224;27.976;2023-07-24T06:51:30;7.03;;;3.97;;
5965;SDS011;3009;43.224;27.976;2023-07-24T06:53:58;4.22;;;3.83;;
5965;SDS011;3009;43.224;27.976;2023-07-24T06:56:27;4.15;;;3.88;;
5965;SDS011;3009;43.224;27.976;2023-07-24T06:58:57;6.40;;;3.60;;
5965;SDS011;3009;43.224;27.976;2023-07-24T07:01:26;6.47;;;4.18;;
5965;SDS011;3009;43.224;27.976;2023-07-24T07:03:54;4.65;;;4.25;;
5965;SDS011;3009;43.224;27.976;2023-07-24T07:06:23;3.75;;;3.65;;
5965;SDS011;3009;43.224;27.976;2023-07-24T07:08:54;3.90;;;3.50;;
5965;SDS011;3009;43.224;27.976;2023-07-24T07:11:22;3.60;;;3.35;;
5965;SDS011;3009;43.224;27.976;2023-07-24T07:13:51;4.10;;;3.80;;
5965;SDS011;3009;43.224;27.976;2023-07-24T07:16:21;3.78;;;3.58;;
5965;SDS011;3009;43.224;27.976;2023-07-24T07:18:49;3.72;;;3.53;;
5965;SDS011;3009;43.224;27.976;2023-07-24T07:21:18;4.47;;;4.00;;
5965;SDS011;3009;43.224;27.976;2023-07-24T07:23:46;3.80;;;3.50;;
5965;SDS011;3009;43.224;27.976;2023-07-24T07:26:15;3.92;;;3.83;;
5965;SDS011;3009;43.224;27.976;2023-07-24T07:28:50;3.97;;;3.88;;
5965;SDS011;3009;43.224;27.976;2023-07-24T07:31:21;4.28;;;4.07;;
5965;SDS011;3009;43.224;27.976;2023-07-24T07:33:49;4.38;;;4.18;;
5965;SDS011;3009;43.224;27.976;2023-07-24T07:36:18;4.72;;;4.38;;
5965;SDS011;3009;43.224;27.976;2023-07-24T07:38:48;5.05;;;4.13;;
5965;SDS011;3009;43.224;27.976;2023-07-24T07:41:17;6.15;;;5.35;;
5965;SDS011;3009;43.224;27.976;2023-07-24T07:43:45;5.97;;;5.43;;
5965;SDS011;3009;43.224;27.976;2023-07-24T07:46:14;6.05;;;5.32;;
5965;SDS011;3009;43.224;27.976;2023-07-24T07:48:44;5.82;;;5.38;;
5965;SDS011;3009;43.224;27.976;2023-07-24T07:51:12;6.25;;;5.63;;
5965;SDS011;3009;43.224;27.976;2023-07-24T07:53:41;18.67;;;7.68;;
5965;SDS011;3009;43.224;27.976;2023-07-24T07:56:10;14.45;;;6.00;;
5965;SDS011;3009;43.224;27.976;2023-07-24T07:58:38;8.27;;;5.60;;
5965;SDS011;3009;43.224;27.976;2023-07-24T08:01:06;8.10;;;6.15;;
5965;SDS011;3009;43.224;27.976;2023-07-24T08:03:35;7.03;;;6.10;;
5965;SDS011;3009;43.224;27.976;2023-07-24T08:06:05;6.95;;;6.22;;
5965;SDS011;3009;43.224;27.976;2023-07-24T08:08:33;6.75;;;6.25;;
5965;SDS011;3009;43.224;27.976;2023-07-24T08:11:03;7.07;;;6.50;;
5965;SDS011;3009;43.224;27.976;2023-07-24T08:13:33;6.77;;;6.30;;
5965;SDS011;3009;43.224;27.976;2023-07-24T08:16:02;6.97;;;6.37;;
5965;SDS011;3009;43.224;27.976;2023-07-24T08:18:31;7.23;;;6.60;;
5965;SDS011;3009;43.224;27.976;2023-07-24T08:20:59;7.03;;;6.53;;
5965;SDS011;3009;43.224;27.976;2023-07-24T08:23:28;8.10;;;7.53;;
5965;SDS011;3009;43.224;27.976;2023-07-24T08:25:56;7.27;;;6.77;;
5965;SDS011;3009;43.224;27.976;2023-07-24T08:28:24;7.37;;;6.97;;
5965;SDS011;3009;43.224;27.976;2023-07-24T08:30:56;7.43;;;6.80;;
5965;SDS011;3009;43.224;27.976;2023-07-24T08:33:25;7.10;;;6.50;;
5965;SDS011;3009;43.224;27.976;2023-07-24T08:35:58;7.43;;;6.80;;
5965;SDS011;3009;43.224;27.976;2023-07-24T08:38:29;7.93;;;7.43;;
5965;SDS011;3009;43.224;27.976;2023-07-24T08:41:04;7.07;;;6.60;;
5965;SDS011;3009;43.224;27.976;2023-07-24T08:43:35;7.37;;;6.87;;
5965;SDS011;3009;43.224;27.976;2023-07-24T08:46:04;6.80;;;6.20;;
5965;SDS011;3009;43.224;27.976;2023-07-24T08:48:35;7.10;;;6.50;;
5965;SDS011;3009;43.224;27.976;2023-07-24T08:51:04;6.77;;;6.37;;
5965;SDS011;3009;43.224;27.976;2023-07-24T08:53:35;7.13;;;6.63;;
5965;SDS011;3009;43.224;27.976;2023-07-24T08:56:05;7.23;;;6.63;;
5965;SDS011;3009;43.224;27.976;2023-07-24T08:58:35;7.70;;;6.90;;
5965;SDS011;3009;43.224;27.976;2023-07-24T09:01:06;6.73;;;6.30;;
5965;SDS011;3009;43.224;27.976;2023-07-24T09:03:35;6.77;;;6.37;;
5965;SDS011;3009;43.224;27.976;2023-07-24T09:06:04;6.33;;;5.93;;
5965;SDS011;3009;43.224;27.976;2023-07-24T09:08:36;6.40;;;6.03;;
5965;SDS011;3009;43.224;27.976;2023-07-24T09:11:06;7.10;;;6.40;;
5965;SDS011;3009;43.224;27.976;2023-07-24T09:13:36;7.47;;;6.67;;
5965;SDS011;3009;43.224;27.976;2023-07-24T09:16:05;6.63;;;6.23;;
5965;SDS011;3009;43.224;27.976;2023-07-24T09:18:39;6.70;;;6.00;;
5965;SDS011;3009;43.224;27.976;2023-07-24T09:21:08;6.77;;;6.30;;
5965;SDS011;3009;43.224;27.976;2023-07-24T09:23:40;6.57;;;6.13;;
5965;SDS011;3009;43.224;27.976;2023-07-24T09:26:10;6.63;;;6.10;;
5965;SDS011;3009;43.224;27.976;2023-07-24T09:28:38;6.10;;;5.70;;
5965;SDS011;3009;43.224;27.976;2023-07-24T09:31:07;6.80;;;6.23;;
5965;SDS011;3009;43.224;27.976;2023-07-24T09:33:35;5.90;;;5.50;;
5965;SDS011;3009;43.224;27.976;2023-07-24T09:36:05;6.87;;;6.33;;
5965;SDS011;3009;43.224;27.976;2023-07-24T09:38:35;5.97;;;5.57;;
5965;SDS011;3009;43.224;27.976;2023-07-24T09:41:05;6.00;;;5.60;;
5965;SDS011;3009;43.224;27.976;2023-07-24T09:43:35;5.83;;;5.50;;
5965;SDS011;3009;43.224;27.976;2023-07-24T09:46:06;6.50;;;6.00;;
5965;SDS011;3009;43.224;27.976;2023-07-24T09:48:37;6.47;;;5.97;;
5965;SDS011;3009;43.224;27.976;2023-07-24T09:51:25;7.03;;;6.50;;
5965;SDS011;3009;43.224;27.976;2023-07-24T09:53:58;6.90;;;6.30;;
5965;SDS011;3009;43.224;27.976;2023-07-24T09:56:35;5.93;;;5.63;;
5965;SDS011;3009;43.224;27.976;2023-07-24T09:59:20;7.93;;;5.60;;
5965;SDS011;3009;43.224;27.976;2023-07-24T10:01:50;10.80;;;5.80;;
5965;SDS011;3009;43.224;27.976;2023-07-24T10:04:19;6.50;;;5.90;;
5965;SDS011;3009;43.224;27.976;2023-07-24T10:06:47;6.03;;;5.57;;
5965;SDS011;3009;43.224;27.976;2023-07-24T10:09:16;6.70;;;6.10;;
5965;SDS011;3009;43.224;27.976;2023-07-24T10:11:50;6.43;;;6.03;;
5965;SDS011;3009;43.224;27.976;2023-07-24T10:14:19;6.80;;;6.23;;
5965;SDS011;3009;43.224;27.976;2023-07-24T10:16:48;7.37;;;6.57;;
5965;SDS011;3009;43.224;27.976;2023-07-24T10:19:22;6.50;;;6.00;;
5965;SDS011;3009;43.224;27.976;2023-07-24T10:21:50;6.40;;;5.93;;
5965;SDS011;3009;43.224;27.976;2023-07-24T10:24:19;6.33;;;5.93;;
5965;SDS011;3009;43.224;27.976;2023-07-24T10:27:08;6.70;;;6.03;;
5965;SDS011;3009;43.224;27.976;2023-07-24T10:29:37;6.63;;;6.13;;
5965;SDS011;3009;43.224;27.976;2023-07-24T10:32:16;6.90;;;6.40;;
5965;SDS011;3009;43.224;27.976;2023-07-24T10:34:45;6.77;;;6.27;;
5965;SDS011;3009;43.224;27.976;2023-07-24T10:37:31;6.70;;;6.30;;
5965;SDS011;3009;43.224;27.976;2023-07-24T10:40:00;7.17;;;6.50;;
5965;SDS011;3009;43.224;27.976;2023-07-24T10:42:32;7.53;;;6.97;;
5965;SDS011;3009;43.224;27.976;2023-07-24T10:45:04;7.57;;;6.97;;
5965;SDS011;3009;43.224;27.976;2023-07-24T10:47:32;7.23;;;6.73;;
5965;SDS011;3009;43.224;27.976;2023-07-24T10:50:00;7.40;;;6.60;;
5965;SDS011;3009;43.224;27.976;2023-07-24T10:52:29;7.83;;;7.33;;
5965;SDS011;3009;43.224;27.976;2023-07-24T10:55:00;7.23;;;6.63;;
5965;SDS011;3009;43.224;27.976;2023-07-24T10:57:28;7.60;;;7.10;;
5965;SDS011;3009;43.224;27.976;2023-07-24T11:00:00;7.20;;;6.50;;
5965;SDS011;3009;43.224;27.976;2023-07-24T11:02:28;7.60;;;6.90;;
5965;SDS011;3009;43.224;27.976;2023-07-24T11:04:58;6.60;;;6.10;;
5965;SDS011;3009;43.224;27.976;2023-07-24T11:07:31;7.67;;;6.97;;
5965;SDS011;3009;43.224;27.976;2023-07-24T11:10:00;10.30;;;6.97;;
5965;SDS011;3009;43.224;27.976;2023-07-24T11:12:29;11.13;;;8.60;;
5965;SDS011;3009;43.224;27.976;2023-07-24T11:15:00;18.37;;;11.87;;
5965;SDS011;3009;43.224;27.976;2023-07-24T11:17:34;8.20;;;7.60;;
5965;SDS011;3009;43.224;27.976;2023-07-24T11:20:07;7.50;;;6.80;;
5965;SDS011;3009;43.224;27.976;2023-07-24T11:22:38;7.20;;;6.70;;
5965;SDS011;3009;43.224;27.976;2023-07-24T11:25:07;7.63;;;7.03;;
5965;SDS011;3009;43.224;27.976;2023-07-24T11:27:40;6.97;;;6.43;;
5965;SDS011;3009;43.224;27.976;2023-07-24T11:30:12;7.87;;;7.30;;
5965;SDS011;3009;43.224;27.976;2023-07-24T11:32:46;7.60;;;7.10;;
5965;SDS011;3009;43.224;27.976;2023-07-24T11:35:15;7.23;;;6.70;;
5965;SDS011;3009;43.224;27.976;2023-07-24T11:37:44;7.03;;;6.50;;
5965;SDS011;3009;43.224;27.976;2023-07-24T11:40:13;7.47;;;6.67;;
5965;SDS011;3009;43.224;27.976;2023-07-24T11:42:42;7.30;;;6.60;;
5965;SDS011;3009;43.224;27.976;2023-07-24T11:45:12;7.13;;;6.73;;
5965;SDS011;3009;43.224;27.976;2023-07-24T11:47:44;8.70;;;6.60;;
5965;SDS011;3009;43.224;27.976;2023-07-24T11:50:14;8.33;;;7.57;;
5965;SDS011;3009;43.224;27.976;2023-07-24T11:52:45;8.20;;;7.53;;
5965;SDS011;3009;43.224;27.976;2023-07-24T11:55:14;6.80;;;6.30;;
5965;SDS011;3009;43.224;27.976;2023-07-24T11:57:54;7.60;;;6.97;;
5965;SDS011;3009;43.224;27.976;2023-07-24T12:00:25;7.53;;;7.03;;
5965;SDS011;3009;43.224;27.976;2023-07-24T12:02:58;7.17;;;6.57;;
5965;SDS011;3009;43.224;27.976;2023-07-24T12:05:27;7.40;;;6.90;;
5965;SDS011;3009;43.224;27.976;2023-07-24T12:07:56;7.47;;;6.87;;
5965;SDS011;3009;43.224;27.976;2023-07-24T12:10:30;7.40;;;6.80;;
5965;SDS011;3009;43.224;27.976;2023-07-24T12:12:59;7.10;;;6.40;;
5965;SDS011;3009;43.224;27.976;2023-07-24T12:15:29;7.07;;;6.57;;
5965;SDS011;3009;43.224;27.976;2023-07-24T12:17:58;7.10;;;6.60;;
5965;SDS011;3009;43.224;27.976;2023-07-24T12:20:27;8.80;;;7.33;;
5965;SDS011;3009;43.224;27.976;2023-07-24T12:22:56;7.77;;;7.00;;
5965;SDS011;3009;43.224;27.976;2023-07-24T12:25:25;7.50;;;6.80;;
5965;SDS011;3009;43.224;27.976;2023-07-24T12:27:53;7.37;;;6.77;;
5965;SDS011;3009;43.224;27.976;2023-07-24T12:30:22;10.83;;;6.97;;
5965;SDS011;3009;43.224;27.976;2023-07-24T12:32:51;7.73;;;7.03;;
5965;SDS011;3009;43.224;27.976;2023-07-24T12:35:20;7.37;;;6.77;;
5965;SDS011;3009;43.224;27.976;2023-07-24T12:37:48;7.20;;;6.60;;
5965;SDS011;3009;43.224;27.976;2023-07-24T12:40:17;7.30;;;6.73;;
5965;SDS011;3009;43.224;27.976;2023-07-24T12:42:45;7.07;;;6.40;;
5965;SDS011;3009;43.224;27.976;2023-07-24T12:45:13;7.27;;;6.63;;
5965;SDS011;3009;43.224;27.976;2023-07-24T12:47:42;7.33;;;6.47;;
5965;SDS011;3009;43.224;27.976;2023-07-24T12:50:12;10.23;;;6.93;;
5965;SDS011;3009;43.224;27.976;2023-07-24T12:52:40;6.90;;;6.40;;
5965;SDS011;3009;43.224;27.976;2023-07-24T12:55:09;6.20;;;5.70;;
5965;SDS011;3009;43.224;27.976;2023-07-24T12:57:37;7.27;;;6.67;;
5965;SDS011;3009;43.224;27.976;2023-07-24T13:00:07;7.20;;;6.60;;
5965;SDS011;3009;43.224;27.976;2023-07-24T13:02:36;7.57;;;6.97;;
5965;SDS011;3009;43.224;27.976;2023-07-24T13:05:04;6.73;;;6.27;;
5965;SDS011;3009;43.224;27.976;2023-07-24T13:07:34;7.67;;;6.10;;
5965;SDS011;3009;43.224;27.976;2023-07-24T13:10:03;7.37;;;6.87;;
5965;SDS011;3009;43.224;27.976;2023-07-24T13:12:32;7.57;;;7.03;;
5965;SDS011;3009;43.224;27.976;2023-07-24T13:15:00;7.37;;;6.83;;
5965;SDS011;3009;43.224;27.976;2023-07-24T13:17:29;6.40;;;5.93;;
5965;SDS011;3009;43.224;27.976;2023-07-24T13:19:57;6.73;;;6.10;;
5965;SDS011;3009;43.224;27.976;2023-07-24T13:22:26;6.70;;;6.30;;
5965;SDS011;3009;43.224;27.976;2023-07-24T13:24:55;5.90;;;5.50;;
5965;SDS011;3009;43.224;27.976;2023-07-24T13:27:24;7.43;;;6.50;;
5965;SDS011;3009;43.224;27.976;2023-07-24T13:29:52;7.00;;;6.50;;
5965;SDS011;3009;43.224;27.976;2023-07-24T13:32:20;7.50;;;6.90;;
5965;SDS011;3009;43.224;27.976;2023-07-24T13:34:49;6.50;;;6.10;;
5965;SDS011;3009;43.224;27.976;2023-07-24T13:37:17;6.80;;;5.93;;
5965;SDS011;3009;43.224;27.976;2023-07-24T13:39:45;6.93;;;6.20;;
5965;SDS011;3009;43.224;27.976;2023-07-24T13:42:15;6.60;;;6.20;;
5965;SDS011;3009;43.224;27.976;2023-07-24T13:44:44;6.53;;;6.07;;
5965;SDS011;3009;43.224;27.976;2023-07-24T13:47:12;6.47;;;5.97;;
5965;SDS011;3009;43.224;27.976;2023-07-24T13:49:40;6.13;;;5.73;;
5965;SDS011;3009;43.224;27.976;2023-07-24T13:52:09;6.37;;;5.97;;
5965;SDS011;3009;43.224;27.976;2023-07-24T13:54:37;6.43;;;6.03;;
5965;SDS011;3009;43.224;27.976;2023-07-24T13:57:06;7.90;;;5.80;;
5965;SDS011;3009;43.224;27.976;2023-07-24T13:59:36;7.03;;;6.43;;
5965;SDS011;3009;43.224;27.976;2023-07-24T14:02:06;7.10;;;6.60;;
5965;SDS011;3009;43.224;27.976;2023-07-24T14:04:34;6.53;;;6.03;;
5965;SDS011;3009;43.224;27.976;2023-07-24T14:07:03;6.90;;;6.03;;
5965;SDS011;3009;43.224;27.976;2023-07-24T14:09:31;6.43;;;5.83;;
5965;SDS011;3009;43.224;27.976;2023-07-24T14:12:01;7.10;;;6.60;;
5965;SDS011;3009;43.224;27.976;2023-07-24T14:14:30;6.07;;;5.57;;
5965;SDS011;3009;43.224;27.976;2023-07-24T14:17:00;6.60;;;6.10;;
5965;SDS011;3009;43.224;27.976;2023-07-24T14:19:28;6.67;;;6.07;;
5965;SDS011;3009;43.224;27.976;2023-07-24T14:21:57;6.87;;;6.37;;
5965;SDS011;3009;43.224;27.976;2023-07-24T14:24:25;6.73;;;6.10;;
5965;SDS011;3009;43.224;27.976;2023-07-24T14:26:54;6.40;;;5.93;;
5965;SDS011;3009;43.224;27.976;2023-07-24T14:29:22;6.47;;;6.07;;
5965;SDS011;3009;43.224;27.976;2023-07-24T14:31:50;6.73;;;5.60;;
5965;SDS011;3009;43.224;27.976;2023-07-24T14:34:20;6.23;;;5.67;;
5965;SDS011;3009;43.224;27.976;2023-07-24T14:36:49;6.57;;;5.97;;
5965;SDS011;3009;43.224;27.976;2023-07-24T14:39:19;9.37;;;6.10;;
5965;SDS011;3009;43.224;27.976;2023-07-24T14:41:47;6.87;;;6.20;;
5965;SDS011;3009;43.224;27.976;2023-07-24T14:44:16;6.37;;;5.90;;
5965;SDS011;3009;43.224;27.976;2023-07-24T14:46:44;7.00;;;6.40;;
5965;SDS011;3009;43.224;27.976;2023-07-24T14:49:12;6.83;;;6.33;;
5965;SDS011;3009;43.224;27.976;2023-07-24T14:51:42;6.50;;;6.00;;
5965;SDS011;3009;43.224;27.976;2023-07-24T14:54:10;6.47;;;6.03;;
5965;SDS011;3009;43.224;27.976;2023-07-24T14:56:39;7.17;;;6.67;;
5965;SDS011;3009;43.224;27.976;2023-07-24T14:59:22;8.63;;;6.03;;
5965;SDS011;3009;43.224;27.976;2023-07-24T15:01:50;6.47;;;5.93;;
5965;SDS011;3009;43.224;27.976;2023-07-24T15:04:19;7.00;;;6.50;;
5965;SDS011;3009;43.224;27.976;2023-07-24T15:06:49;7.30;;;6.80;;
5965;SDS011;3009;43.224;27.976;2023-07-24T15:09:20;11.47;;;6.13;;
5965;SDS011;3009;43.224;27.976;2023-07-24T15:11:49;6.40;;;5.80;;
5965;SDS011;3009;43.224;27.976;2023-07-24T15:14:17;10.77;;;5.13;;
5965;SDS011;3009;43.224;27.976;2023-07-24T15:16:46;7.50;;;6.20;;